Groton New London Airport
KGON : now visible

Airfield :











YOU CAN JOIN US ON...

 
LOGIN :

Register | Disclaimer

   EN    FR    IT 

 









Legend :    VFR   Marginal VFR   IFR   Intensive IFR   Very Intensive IFR
Visi :
Ceiling :
>= 8 km
>= 3000ft
5 to 8 km
1000 to 3000 ft
1500m to 5 km
500 to 1000 ft
800 to 1500m
200 to 500 ft
< 800m
< 200 ft
Symbols :   Thunderstorms  Fog  Heavy snow  Heavy precipitations  Wind > 20 kt






- Airport Elevation : 9 ft
- IATA code : GON


KGON - Groton New London

CURRENT METAR :
  • 220356Z AUTO 22010KT 10SM CLR 09/02 A3001 RMK AO2 SLP163 T00940022

EXPIRED METARs :
  • 220256Z 23009KT 10SM CLR 09/04 A3004 RMK AO2 SLP172 T00890039 58014
  • 220156Z 23009KT 10SM CLR 08/03 A3006 RMK AO2 SLP177 T00830033

TAF KGON
Valid from the 22 at 02:00 until the 23 at 00:00 UTC


220212Z 2202/2224 23009KT P6SM BKN150
FM220600 22010KT P6SM FEW050 BKN100
FM221000 22010KT P6SM FEW050 BKN080
FM221200 23011G17KT P6SM SCT030 BKN050 BKN100
FM221400 23011G20KT P6SM SCT030 BKN050 BKN100
FM221700 26015G24KT P6SM VCSH SCT030 BKN050 BKN100
TEMPO 2218/2220 6SM -SHRA BKN030 BKN050
FM222100 30016G26KT P6SM SCT030 SCT050 BKN120



MET'MAP, your aeronautical weather chart ! - Copyright ORBIFLY December 2007 - Disclaimer

ORBIFLY MET'MAP TEAM :

Programming & Development : Alexandra Zaïnal
Concept & Development : Baudouin d'Aumeries
Co-Development & Prog : Marc-Olivier Méhu
Technical & hardware support : Manuel Goepfert

Contact : metmap@orbifly.com




SOURCES & CREDITS :

   NOAA       Earth
Advisory